sensor_id;sensor_type;location;lat;lon;timestamp;P1;durP1;ratioP1;P2;durP2;ratioP2
17253;SDS011;32542;52.832;13.816;2023-08-21T00:00:41;10.90;;;8.50;;
17253;SDS011;32542;52.832;13.816;2023-08-21T00:03:44;14.90;;;8.40;;
17253;SDS011;32542;52.832;13.816;2023-08-21T00:06:47;12.98;;;8.70;;
17253;SDS011;32542;52.832;13.816;2023-08-21T00:09:50;11.02;;;8.27;;
17253;SDS011;32542;52.832;13.816;2023-08-21T00:12:53;11.40;;;7.75;;
17253;SDS011;32542;52.832;13.816;2023-08-21T00:15:57;11.95;;;8.88;;
17253;SDS011;32542;52.832;13.816;2023-08-21T00:19:01;10.98;;;8.05;;
17253;SDS011;32542;52.832;13.816;2023-08-21T00:22:04;15.38;;;8.98;;
17253;SDS011;32542;52.832;13.816;2023-08-21T00:25:07;13.05;;;8.50;;
17253;SDS011;32542;52.832;13.816;2023-08-21T00:28:10;15.63;;;9.00;;
17253;SDS011;32542;52.832;13.816;2023-08-21T00:31:14;12.43;;;8.60;;
17253;SDS011;32542;52.832;13.816;2023-08-21T00:34:17;12.25;;;8.32;;
17253;SDS011;32542;52.832;13.816;2023-08-21T00:37:20;11.88;;;8.50;;
17253;SDS011;32542;52.832;13.816;2023-08-21T00:40:23;13.25;;;8.85;;
17253;SDS011;32542;52.832;13.816;2023-08-21T00:43:26;11.63;;;8.90;;
17253;SDS011;32542;52.832;13.816;2023-08-21T00:46:31;11.27;;;8.55;;
17253;SDS011;32542;52.832;13.816;2023-08-21T00:49:34;11.15;;;7.80;;
17253;SDS011;32542;52.832;13.816;2023-08-21T00:52:38;10.93;;;8.38;;
17253;SDS011;32542;52.832;13.816;2023-08-21T00:55:43;11.18;;;8.57;;
17253;SDS011;32542;52.832;13.816;2023-08-21T00:58:46;12.63;;;8.18;;
17253;SDS011;32542;52.832;13.816;2023-08-21T01:01:50;12.23;;;9.18;;
17253;SDS011;32542;52.832;13.816;2023-08-21T01:04:54;12.25;;;8.23;;
17253;SDS011;32542;52.832;13.816;2023-08-21T01:07:57;12.10;;;8.55;;
17253;SDS011;32542;52.832;13.816;2023-08-21T01:11:06;14.05;;;8.52;;
17253;SDS011;32542;52.832;13.816;2023-08-21T01:14:17;10.35;;;7.35;;
17253;SDS011;32542;52.832;13.816;2023-08-21T01:17:32;10.20;;;8.15;;
17253;SDS011;32542;52.832;13.816;2023-08-21T01:20:38;11.55;;;7.78;;
17253;SDS011;32542;52.832;13.816;2023-08-21T01:23:45;11.52;;;7.68;;
17253;SDS011;32542;52.832;13.816;2023-08-21T01:26:47;10.55;;;7.68;;
17253;SDS011;32542;52.832;13.816;2023-08-21T01:29:50;11.00;;;7.70;;
17253;SDS011;32542;52.832;13.816;2023-08-21T01:32:56;10.65;;;7.55;;
17253;SDS011;32542;52.832;13.816;2023-08-21T01:36:02;12.95;;;8.00;;
17253;SDS011;32542;52.832;13.816;2023-08-21T01:39:08;8.75;;;6.93;;
17253;SDS011;32542;52.832;13.816;2023-08-21T01:42:12;12.43;;;7.45;;
17253;SDS011;32542;52.832;13.816;2023-08-21T01:45:15;10.75;;;6.78;;
17253;SDS011;32542;52.832;13.816;2023-08-21T01:48:18;9.98;;;6.65;;
17253;SDS011;32542;52.832;13.816;2023-08-21T01:51:21;11.13;;;6.80;;
17253;SDS011;32542;52.832;13.816;2023-08-21T01:54:25;8.90;;;6.80;;
17253;SDS011;32542;52.832;13.816;2023-08-21T01:57:28;9.52;;;6.93;;
17253;SDS011;32542;52.832;13.816;2023-08-21T02:00:31;8.70;;;6.45;;
17253;SDS011;32542;52.832;13.816;2023-08-21T02:03:34;11.60;;;6.00;;
17253;SDS011;32542;52.832;13.816;2023-08-21T02:06:37;8.45;;;5.78;;
17253;SDS011;32542;52.832;13.816;2023-08-21T02:09:42;7.72;;;6.38;;
17253;SDS011;32542;52.832;13.816;2023-08-21T02:12:46;8.95;;;5.97;;
17253;SDS011;32542;52.832;13.816;2023-08-21T02:15:50;7.65;;;5.53;;
17253;SDS011;32542;52.832;13.816;2023-08-21T02:18:53;8.23;;;5.20;;
17253;SDS011;32542;52.832;13.816;2023-08-21T02:21:56;5.72;;;4.80;;
17253;SDS011;32542;52.832;13.816;2023-08-21T02:25:01;6.95;;;5.15;;
17253;SDS011;32542;52.832;13.816;2023-08-21T02:28:04;6.63;;;4.70;;
17253;SDS011;32542;52.832;13.816;2023-08-21T02:31:08;6.65;;;4.60;;
17253;SDS011;32542;52.832;13.816;2023-08-21T02:34:12;5.00;;;4.50;;
17253;SDS011;32542;52.832;13.816;2023-08-21T02:37:15;4.88;;;4.38;;
17253;SDS011;32542;52.832;13.816;2023-08-21T02:40:19;8.13;;;4.40;;
17253;SDS011;32542;52.832;13.816;2023-08-21T02:43:22;5.05;;;3.65;;
17253;SDS011;32542;52.832;13.816;2023-08-21T02:46:25;7.50;;;4.53;;
17253;SDS011;32542;52.832;13.816;2023-08-21T02:49:28;5.10;;;3.80;;
17253;SDS011;32542;52.832;13.816;2023-08-21T02:52:30;4.72;;;3.47;;
17253;SDS011;32542;52.832;13.816;2023-08-21T02:55:35;4.40;;;3.55;;
17253;SDS011;32542;52.832;13.816;2023-08-21T02:58:38;3.78;;;3.40;;
17253;SDS011;32542;52.832;13.816;2023-08-21T03:01:41;5.07;;;3.72;;
17253;SDS011;32542;52.832;13.816;2023-08-21T03:04:44;4.43;;;3.83;;
17253;SDS011;32542;52.832;13.816;2023-08-21T03:07:47;4.57;;;3.67;;
17253;SDS011;32542;52.832;13.816;2023-08-21T03:10:51;4.72;;;4.22;;
17253;SDS011;32542;52.832;13.816;2023-08-21T03:13:55;5.18;;;4.38;;
17253;SDS011;32542;52.832;13.816;2023-08-21T03:16:58;7.53;;;4.20;;
17253;SDS011;32542;52.832;13.816;2023-08-21T03:20:01;5.63;;;4.97;;
17253;SDS011;32542;52.832;13.816;2023-08-21T03:23:06;9.15;;;5.30;;
17253;SDS011;32542;52.832;13.816;2023-08-21T03:26:10;4.93;;;4.40;;
17253;SDS011;32542;52.832;13.816;2023-08-21T03:29:13;6.07;;;4.57;;
17253;SDS011;32542;52.832;13.816;2023-08-21T03:32:16;5.97;;;4.80;;
17253;SDS011;32542;52.832;13.816;2023-08-21T03:35:20;7.22;;;4.78;;
17253;SDS011;32542;52.832;13.816;2023-08-21T03:38:23;5.18;;;4.63;;
17253;SDS011;32542;52.832;13.816;2023-08-21T03:41:28;5.57;;;4.18;;
17253;SDS011;32542;52.832;13.816;2023-08-21T03:44:31;5.78;;;4.50;;
17253;SDS011;32542;52.832;13.816;2023-08-21T03:47:35;6.60;;;4.82;;
17253;SDS011;32542;52.832;13.816;2023-08-21T03:50:44;5.03;;;4.03;;
17253;SDS011;32542;52.832;13.816;2023-08-21T03:53:47;5.25;;;4.45;;
17253;SDS011;32542;52.832;13.816;2023-08-21T03:56:51;5.97;;;4.70;;
17253;SDS011;32542;52.832;13.816;2023-08-21T03:59:56;4.68;;;4.22;;
17253;SDS011;32542;52.832;13.816;2023-08-21T04:02:59;4.65;;;4.25;;
17253;SDS011;32542;52.832;13.816;2023-08-21T04:06:02;5.40;;;4.40;;
17253;SDS011;32542;52.832;13.816;2023-08-21T04:09:05;5.25;;;4.45;;
17253;SDS011;32542;52.832;13.816;2023-08-21T04:12:09;5.47;;;4.63;;
17253;SDS011;32542;52.832;13.816;2023-08-21T04:15:14;9.88;;;4.63;;
17253;SDS011;32542;52.832;13.816;2023-08-21T04:18:17;5.07;;;3.92;;
17253;SDS011;32542;52.832;13.816;2023-08-21T04:21:39;5.57;;;4.35;;
17253;SDS011;32542;52.832;13.816;2023-08-21T04:24:42;4.82;;;4.32;;
17253;SDS011;32542;52.832;13.816;2023-08-21T04:27:46;5.43;;;4.60;;
17253;SDS011;32542;52.832;13.816;2023-08-21T04:30:50;4.88;;;4.07;;
17253;SDS011;32542;52.832;13.816;2023-08-21T04:33:53;5.40;;;4.13;;
17253;SDS011;32542;52.832;13.816;2023-08-21T04:36:56;5.57;;;4.22;;
17253;SDS011;32542;52.832;13.816;2023-08-21T04:40:00;6.28;;;4.47;;
17253;SDS011;32542;52.832;13.816;2023-08-21T04:43:04;7.35;;;4.38;;
17253;SDS011;32542;52.832;13.816;2023-08-21T04:46:07;5.78;;;4.43;;
17253;SDS011;32542;52.832;13.816;2023-08-21T04:49:13;5.18;;;4.38;;
17253;SDS011;32542;52.832;13.816;2023-08-21T04:52:16;6.65;;;4.40;;
17253;SDS011;32542;52.832;13.816;2023-08-21T04:55:19;4.80;;;4.05;;
17253;SDS011;32542;52.832;13.816;2023-08-21T04:58:24;6.82;;;4.40;;
17253;SDS011;32542;52.832;13.816;2023-08-21T05:01:27;5.25;;;4.25;;
17253;SDS011;32542;52.832;13.816;2023-08-21T05:04:33;8.38;;;4.32;;
17253;SDS011;32542;52.832;13.816;2023-08-21T05:07:38;7.07;;;4.70;;
17253;SDS011;32542;52.832;13.816;2023-08-21T05:22:06;7.03;;;5.00;;
17253;SDS011;32542;52.832;13.816;2023-08-21T05:25:09;8.65;;;5.68;;
17253;SDS011;32542;52.832;13.816;2023-08-21T05:28:13;10.10;;;5.90;;
17253;SDS011;32542;52.832;13.816;2023-08-21T05:31:16;9.50;;;6.15;;
17253;SDS011;32542;52.832;13.816;2023-08-21T05:34:24;6.68;;;5.75;;
17253;SDS011;32542;52.832;13.816;2023-08-21T05:37:28;8.13;;;5.88;;
17253;SDS011;32542;52.832;13.816;2023-08-21T05:40:31;7.57;;;5.80;;
17253;SDS011;32542;52.832;13.816;2023-08-21T05:43:35;7.72;;;6.38;;
17253;SDS011;32542;52.832;13.816;2023-08-21T05:46:39;7.57;;;5.95;;
17253;SDS011;32542;52.832;13.816;2023-08-21T05:49:42;8.32;;;5.75;;
17253;SDS011;32542;52.832;13.816;2023-08-21T05:52:47;8.05;;;6.25;;
17253;SDS011;32542;52.832;13.816;2023-08-21T05:55:50;9.95;;;5.85;;
17253;SDS011;32542;52.832;13.816;2023-08-21T05:58:53;9.48;;;5.88;;
17253;SDS011;32542;52.832;13.816;2023-08-21T06:01:58;10.70;;;6.40;;
17253;SDS011;32542;52.832;13.816;2023-08-21T06:05:03;9.15;;;6.60;;
17253;SDS011;32542;52.832;13.816;2023-08-21T06:08:08;7.70;;;6.00;;
17253;SDS011;32542;52.832;13.816;2023-08-21T06:11:11;7.78;;;6.00;;
17253;SDS011;32542;52.832;13.816;2023-08-21T06:14:16;8.40;;;6.40;;
17253;SDS011;32542;52.832;13.816;2023-08-21T06:17:19;10.63;;;6.35;;
17253;SDS011;32542;52.832;13.816;2023-08-21T06:20:22;10.88;;;6.93;;
17253;SDS011;32542;52.832;13.816;2023-08-21T06:23:26;9.98;;;6.45;;
17253;SDS011;32542;52.832;13.816;2023-08-21T06:26:29;7.68;;;6.45;;
17253;SDS011;32542;52.832;13.816;2023-08-21T06:29:32;10.65;;;6.15;;
17253;SDS011;32542;52.832;13.816;2023-08-21T06:32:35;11.57;;;6.50;;
17253;SDS011;32542;52.832;13.816;2023-08-21T06:35:38;9.32;;;6.20;;
17253;SDS011;32542;52.832;13.816;2023-08-21T06:38:43;8.63;;;5.90;;
17253;SDS011;32542;52.832;13.816;2023-08-21T06:41:46;9.48;;;6.20;;
17253;SDS011;32542;52.832;13.816;2023-08-21T06:44:52;12.57;;;6.63;;
17253;SDS011;32542;52.832;13.816;2023-08-21T06:47:55;9.50;;;5.88;;
17253;SDS011;32542;52.832;13.816;2023-08-21T06:50:58;9.32;;;6.63;;
17253;SDS011;32542;52.832;13.816;2023-08-21T06:54:04;8.90;;;5.82;;
17253;SDS011;32542;52.832;13.816;2023-08-21T06:57:07;8.50;;;6.30;;
17253;SDS011;32542;52.832;13.816;2023-08-21T07:00:10;9.48;;;6.07;;
17253;SDS011;32542;52.832;13.816;2023-08-21T07:03:14;11.85;;;6.05;;
17253;SDS011;32542;52.832;13.816;2023-08-21T07:06:17;13.05;;;5.88;;
17253;SDS011;32542;52.832;13.816;2023-08-21T07:09:21;11.60;;;5.90;;
17253;SDS011;32542;52.832;13.816;2023-08-21T07:12:24;11.40;;;6.15;;
17253;SDS011;32542;52.832;13.816;2023-08-21T07:15:28;10.65;;;5.97;;
17253;SDS011;32542;52.832;13.816;2023-08-21T07:18:31;13.05;;;6.10;;
17253;SDS011;32542;52.832;13.816;2023-08-21T07:21:35;7.78;;;5.78;;
17253;SDS011;32542;52.832;13.816;2023-08-21T07:24:41;9.27;;;5.75;;
17253;SDS011;32542;52.832;13.816;2023-08-21T07:27:44;9.63;;;5.90;;
17253;SDS011;32542;52.832;13.816;2023-08-21T07:30:47;9.45;;;5.93;;
17253;SDS011;32542;52.832;13.816;2023-08-21T07:33:50;11.23;;;5.85;;
17253;SDS011;32542;52.832;13.816;2023-08-21T07:36:53;12.07;;;6.18;;
17253;SDS011;32542;52.832;13.816;2023-08-21T07:39:57;12.30;;;5.85;;
17253;SDS011;32542;52.832;13.816;2023-08-21T07:43:00;11.77;;;6.28;;
17253;SDS011;32542;52.832;13.816;2023-08-21T07:46:06;10.95;;;6.63;;
17253;SDS011;32542;52.832;13.816;2023-08-21T07:49:11;10.73;;;5.90;;
17253;SDS011;32542;52.832;13.816;2023-08-21T07:52:14;10.45;;;6.20;;
17253;SDS011;32542;52.832;13.816;2023-08-21T07:55:19;9.48;;;6.40;;
17253;SDS011;32542;52.832;13.816;2023-08-21T07:58:22;11.50;;;6.22;;
17253;SDS011;32542;52.832;13.816;2023-08-21T08:01:25;13.40;;;6.80;;
17253;SDS011;32542;52.832;13.816;2023-08-21T08:04:28;10.57;;;6.75;;
17253;SDS011;32542;52.832;13.816;2023-08-21T08:07:31;9.32;;;6.63;;
17253;SDS011;32542;52.832;13.816;2023-08-21T08:21:07;9.55;;;7.03;;
17253;SDS011;32542;52.832;13.816;2023-08-21T08:24:12;13.32;;;6.97;;
17253;SDS011;32542;52.832;13.816;2023-08-21T08:30:57;10.10;;;6.30;;
17253;SDS011;32542;52.832;13.816;2023-08-21T08:34:00;8.57;;;5.70;;
17253;SDS011;32542;52.832;13.816;2023-08-21T08:37:05;11.15;;;5.75;;
17253;SDS011;32542;52.832;13.816;2023-08-21T08:40:08;10.02;;;5.53;;
17253;SDS011;32542;52.832;13.816;2023-08-21T08:43:12;11.55;;;5.68;;
17253;SDS011;32542;52.832;13.816;2023-08-21T08:46:15;10.30;;;5.28;;
17253;SDS011;32542;52.832;13.816;2023-08-21T08:49:20;8.10;;;5.50;;
17253;SDS011;32542;52.832;13.816;2023-08-21T08:52:26;9.95;;;5.30;;
17253;SDS011;32542;52.832;13.816;2023-08-21T08:55:29;11.32;;;4.90;;
17253;SDS011;32542;52.832;13.816;2023-08-21T08:58:32;11.45;;;5.03;;
17253;SDS011;32542;52.832;13.816;2023-08-21T09:01:35;11.10;;;4.32;;
17253;SDS011;32542;52.832;13.816;2023-08-21T09:04:39;9.43;;;4.53;;
17253;SDS011;32542;52.832;13.816;2023-08-21T09:07:43;8.73;;;3.92;;
17253;SDS011;32542;52.832;13.816;2023-08-21T09:10:46;6.50;;;3.85;;
17253;SDS011;32542;52.832;13.816;2023-08-21T09:13:50;7.32;;;4.00;;
17253;SDS011;32542;52.832;13.816;2023-08-21T09:16:59;7.40;;;3.90;;
17253;SDS011;32542;52.832;13.816;2023-08-21T09:20:05;9.00;;;4.03;;
17253;SDS011;32542;52.832;13.816;2023-08-21T09:23:14;8.65;;;3.75;;
17253;SDS011;32542;52.832;13.816;2023-08-21T09:26:18;6.22;;;3.08;;
17253;SDS011;32542;52.832;13.816;2023-08-21T09:29:22;7.38;;;3.22;;
17253;SDS011;32542;52.832;13.816;2023-08-21T09:32:25;11.05;;;3.00;;
17253;SDS011;32542;52.832;13.816;2023-08-21T09:35:28;5.55;;;2.60;;
17253;SDS011;32542;52.832;13.816;2023-08-21T09:38:36;7.03;;;2.80;;
17253;SDS011;32542;52.832;13.816;2023-08-21T09:41:41;9.73;;;3.30;;
17253;SDS011;32542;52.832;13.816;2023-08-21T09:44:44;4.32;;;2.40;;
17253;SDS011;32542;52.832;13.816;2023-08-21T09:47:51;5.50;;;2.22;;
17253;SDS011;32542;52.832;13.816;2023-08-21T09:50:55;5.85;;;2.30;;
17253;SDS011;32542;52.832;13.816;2023-08-21T09:53:59;8.38;;;2.30;;
17253;SDS011;32542;52.832;13.816;2023-08-21T09:57:05;3.20;;;1.75;;
17253;SDS011;32542;52.832;13.816;2023-08-21T10:00:08;5.57;;;2.03;;
17253;SDS011;32542;52.832;13.816;2023-08-21T10:03:17;6.45;;;1.90;;
17253;SDS011;32542;52.832;13.816;2023-08-21T10:06:23;6.88;;;1.88;;
17253;SDS011;32542;52.832;13.816;2023-08-21T10:09:28;3.97;;;1.67;;
17253;SDS011;32542;52.832;13.816;2023-08-21T10:12:32;5.80;;;2.03;;
17253;SDS011;32542;52.832;13.816;2023-08-21T10:15:35;5.30;;;1.90;;
17253;SDS011;32542;52.832;13.816;2023-08-21T10:18:43;3.55;;;1.75;;
17253;SDS011;32542;52.832;13.816;2023-08-21T10:21:47;6.47;;;2.15;;
17253;SDS011;32542;52.832;13.816;2023-08-21T10:24:55;4.28;;;2.28;;
17253;SDS011;32542;52.832;13.816;2023-08-21T10:28:02;4.40;;;1.90;;
17253;SDS011;32542;52.832;13.816;2023-08-21T10:34:31;4.95;;;2.03;;
17253;SDS011;32542;52.832;13.816;2023-08-21T10:37:36;5.53;;;2.13;;
17253;SDS011;32542;52.832;13.816;2023-08-21T10:41:12;4.38;;;1.70;;
17253;SDS011;32542;52.832;13.816;2023-08-21T10:44:15;3.03;;;1.75;;
17253;SDS011;32542;52.832;13.816;2023-08-21T10:47:19;4.82;;;1.70;;
17253;SDS011;32542;52.832;13.816;2023-08-21T10:50:24;5.15;;;1.52;;
17253;SDS011;32542;52.832;13.816;2023-08-21T10:53:28;4.90;;;1.65;;
17253;SDS011;32542;52.832;13.816;2023-08-21T10:56:32;3.03;;;1.50;;
17253;SDS011;32542;52.832;13.816;2023-08-21T10:59:35;4.10;;;1.20;;
17253;SDS011;32542;52.832;13.816;2023-08-21T11:02:39;4.20;;;1.50;;
17253;SDS011;32542;52.832;13.816;2023-08-21T11:05:43;4.80;;;1.90;;
17253;SDS011;32542;52.832;13.816;2023-08-21T11:08:46;4.93;;;1.42;;
17253;SDS011;32542;52.832;13.816;2023-08-21T11:11:50;5.22;;;1.73;;
17253;SDS011;32542;52.832;13.816;2023-08-21T11:14:53;4.93;;;1.52;;
17253;SDS011;32542;52.832;13.816;2023-08-21T11:17:56;4.93;;;1.60;;
17253;SDS011;32542;52.832;13.816;2023-08-21T11:21:05;6.13;;;1.67;;
17253;SDS011;32542;52.832;13.816;2023-08-21T11:24:10;5.75;;;1.50;;
17253;SDS011;32542;52.832;13.816;2023-08-21T11:27:14;9.02;;;1.42;;
17253;SDS011;32542;52.832;13.816;2023-08-21T11:30:18;5.90;;;1.73;;
17253;SDS011;32542;52.832;13.816;2023-08-21T11:33:24;4.00;;;1.50;;
17253;SDS011;32542;52.832;13.816;2023-08-21T11:36:28;3.63;;;1.50;;
17253;SDS011;32542;52.832;13.816;2023-08-21T11:39:44;3.67;;;1.30;;
17253;SDS011;32542;52.832;13.816;2023-08-21T11:42:51;5.93;;;1.58;;
17253;SDS011;32542;52.832;13.816;2023-08-21T11:45:54;3.75;;;1.42;;
17253;SDS011;32542;52.832;13.816;2023-08-21T11:48:59;4.57;;;1.45;;
17253;SDS011;32542;52.832;13.816;2023-08-21T11:52:03;8.48;;;1.63;;
17253;SDS011;32542;52.832;13.816;2023-08-21T11:55:07;3.80;;;1.17;;
17253;SDS011;32542;52.832;13.816;2023-08-21T11:58:13;4.22;;;1.60;;
17253;SDS011;32542;52.832;13.816;2023-08-21T12:01:21;3.63;;;1.67;;
17253;SDS011;32542;52.832;13.816;2023-08-21T12:04:24;4.22;;;1.50;;
17253;SDS011;32542;52.832;13.816;2023-08-21T12:07:28;5.00;;;1.40;;
17253;SDS011;32542;52.832;13.816;2023-08-21T12:10:31;5.03;;;1.40;;
17253;SDS011;32542;52.832;13.816;2023-08-21T12:13:35;3.30;;;1.33;;
17253;SDS011;32542;52.832;13.816;2023-08-21T12:16:38;5.80;;;1.50;;
17253;SDS011;32542;52.832;13.816;2023-08-21T12:19:41;2.25;;;1.10;;
17253;SDS011;32542;52.832;13.816;2023-08-21T12:22:45;4.63;;;1.55;;
17253;SDS011;32542;52.832;13.816;2023-08-21T12:25:48;4.13;;;1.45;;
17253;SDS011;32542;52.832;13.816;2023-08-21T12:28:52;3.50;;;1.20;;
17253;SDS011;32542;52.832;13.816;2023-08-21T12:31:55;4.88;;;1.27;;
17253;SDS011;32542;52.832;13.816;2023-08-21T12:34:58;4.63;;;1.20;;
17253;SDS011;32542;52.832;13.816;2023-08-21T12:38:06;3.17;;;1.08;;
17253;SDS011;32542;52.832;13.816;2023-08-21T12:41:13;5.57;;;1.23;;
17253;SDS011;32542;52.832;13.816;2023-08-21T12:44:18;4.10;;;1.35;;
17253;SDS011;32542;52.832;13.816;2023-08-21T12:47:21;3.03;;;1.08;;
17253;SDS011;32542;52.832;13.816;2023-08-21T12:50:24;4.55;;;1.27;;
17253;SDS011;32542;52.832;13.816;2023-08-21T12:53:27;6.90;;;1.30;;
17253;SDS011;32542;52.832;13.816;2023-08-21T12:56:30;3.42;;;0.90;;
17253;SDS011;32542;52.832;13.816;2023-08-21T12:59:34;6.20;;;1.20;;
17253;SDS011;32542;52.832;13.816;2023-08-21T13:02:37;2.30;;;1.08;;
17253;SDS011;32542;52.832;13.816;2023-08-21T13:05:40;6.13;;;1.27;;
17253;SDS011;32542;52.832;13.816;2023-08-21T13:08:43;5.07;;;0.93;;
17253;SDS011;32542;52.832;13.816;2023-08-21T13:11:46;2.85;;;1.08;;
17253;SDS011;32542;52.832;13.816;2023-08-21T13:14:51;2.80;;;1.02;;
17253;SDS011;32542;52.832;13.816;2023-08-21T13:17:54;3.75;;;1.20;;
17253;SDS011;32542;52.832;13.816;2023-08-21T13:20:57;6.53;;;1.33;;
17253;SDS011;32542;52.832;13.816;2023-08-21T13:24:00;5.28;;;1.60;;
17253;SDS011;32542;52.832;13.816;2023-08-21T13:27:04;2.30;;;1.10;;
17253;SDS011;32542;52.832;13.816;2023-08-21T13:34:02;3.60;;;1.60;;
17253;SDS011;32542;52.832;13.816;2023-08-21T13:37:05;5.05;;;1.20;;
17253;SDS011;32542;52.832;13.816;2023-08-21T13:40:09;6.53;;;1.58;;
17253;SDS011;32542;52.832;13.816;2023-08-21T13:43:14;3.58;;;1.20;;
17253;SDS011;32542;52.832;13.816;2023-08-21T13:46:19;4.63;;;1.00;;
17253;SDS011;32542;52.832;13.816;2023-08-21T13:49:23;5.13;;;1.40;;
17253;SDS011;32542;52.832;13.816;2023-08-21T13:52:26;7.40;;;1.42;;
17253;SDS011;32542;52.832;13.816;2023-08-21T13:55:29;8.07;;;1.52;;
17253;SDS011;32542;52.832;13.816;2023-08-21T13:58:32;2.58;;;1.05;;
17253;SDS011;32542;52.832;13.816;2023-08-21T14:01:37;5.18;;;1.05;;
17253;SDS011;32542;52.832;13.816;2023-08-21T14:04:42;6.05;;;1.10;;
17253;SDS011;32542;52.832;13.816;2023-08-21T14:07:45;3.53;;;1.30;;
17253;SDS011;32542;52.832;13.816;2023-08-21T14:10:48;4.90;;;1.25;;
17253;SDS011;32542;52.832;13.816;2023-08-21T14:13:51;6.15;;;1.40;;
17253;SDS011;32542;52.832;13.816;2023-08-21T14:16:54;3.85;;;1.20;;
17253;SDS011;32542;52.832;13.816;2023-08-21T14:19:58;3.00;;;1.20;;
17253;SDS011;32542;52.832;13.816;2023-08-21T14:23:01;2.50;;;0.88;;
17253;SDS011;32542;52.832;13.816;2023-08-21T14:26:04;3.92;;;1.00;;
17253;SDS011;32542;52.832;13.816;2023-08-21T14:29:07;3.72;;;1.00;;
17253;SDS011;32542;52.832;13.816;2023-08-21T14:32:10;3.50;;;1.20;;
17253;SDS011;32542;52.832;13.816;2023-08-21T14:35:15;6.82;;;1.20;;
17253;SDS011;32542;52.832;13.816;2023-08-21T14:38:18;7.13;;;1.15;;
17253;SDS011;32542;52.832;13.816;2023-08-21T14:41:21;4.63;;;1.35;;
17253;SDS011;32542;52.832;13.816;2023-08-21T14:44:24;4.75;;;1.15;;
17253;SDS011;32542;52.832;13.816;2023-08-21T14:47:27;3.78;;;1.45;;
17253;SDS011;32542;52.832;13.816;2023-08-21T14:50:32;4.38;;;1.20;;
17253;SDS011;32542;52.832;13.816;2023-08-21T14:53:35;2.50;;;1.00;;
17253;SDS011;32542;52.832;13.816;2023-08-21T14:56:38;5.22;;;1.40;;
17253;SDS011;32542;52.832;13.816;2023-08-21T14:59:41;2.78;;;0.93;;
17253;SDS011;32542;52.832;13.816;2023-08-21T15:02:44;3.40;;;1.00;;
17253;SDS011;32542;52.832;13.816;2023-08-21T15:05:48;3.05;;;1.17;;
17253;SDS011;32542;52.832;13.816;2023-08-21T15:08:52;3.00;;;1.10;;
17253;SDS011;32542;52.832;13.816;2023-08-21T15:11:55;2.75;;;0.95;;
17253;SDS011;32542;52.832;13.816;2023-08-21T15:14:58;3.58;;;1.40;;
17253;SDS011;32542;52.832;13.816;2023-08-21T15:18:01;4.53;;;1.17;;
17253;SDS011;32542;52.832;13.816;2023-08-21T15:21:05;5.57;;;1.20;;
17253;SDS011;32542;52.832;13.816;2023-08-21T15:24:08;9.27;;;1.60;;
17253;SDS011;32542;52.832;13.816;2023-08-21T15:27:11;5.93;;;1.15;;
17253;SDS011;32542;52.832;13.816;2023-08-21T15:30:15;7.03;;;1.63;;
17253;SDS011;32542;52.832;13.816;2023-08-21T15:33:18;3.65;;;1.42;;
17253;SDS011;32542;52.832;13.816;2023-08-21T15:36:23;4.40;;;1.42;;
17253;SDS011;32542;52.832;13.816;2023-08-21T15:39:26;4.60;;;1.10;;
17253;SDS011;32542;52.832;13.816;2023-08-21T15:42:29;1.55;;;0.90;;
17253;SDS011;32542;52.832;13.816;2023-08-21T15:45:33;5.78;;;1.45;;
17253;SDS011;32542;52.832;13.816;2023-08-21T15:48:36;5.53;;;1.20;;
17253;SDS011;32542;52.832;13.816;2023-08-21T15:51:40;6.13;;;1.38;;
17253;SDS011;32542;52.832;13.816;2023-08-21T15:54:45;4.32;;;1.27;;
17253;SDS011;32542;52.832;13.816;2023-08-21T15:57:52;4.45;;;1.10;;
17253;SDS011;32542;52.832;13.816;2023-08-21T16:00:56;5.35;;;1.60;;
17253;SDS011;32542;52.832;13.816;2023-08-21T16:03:59;5.60;;;1.40;;
17253;SDS011;32542;52.832;13.816;2023-08-21T16:07:04;5.43;;;1.50;;
17253;SDS011;32542;52.832;13.816;2023-08-21T16:10:07;8.38;;;1.40;;
17253;SDS011;32542;52.832;13.816;2023-08-21T16:13:11;6.13;;;1.70;;
17253;SDS011;32542;52.832;13.816;2023-08-21T16:16:14;2.67;;;1.15;;
17253;SDS011;32542;52.832;13.816;2023-08-21T16:19:17;3.25;;;1.40;;
17253;SDS011;32542;52.832;13.816;2023-08-21T16:22:21;3.42;;;1.17;;
17253;SDS011;32542;52.832;13.816;2023-08-21T16:25:24;3.83;;;1.13;;
17253;SDS011;32542;52.832;13.816;2023-08-21T16:28:27;3.67;;;1.13;;
17253;SDS011;32542;52.832;13.816;2023-08-21T16:31:30;6.07;;;1.30;;
17253;SDS011;32542;52.832;13.816;2023-08-21T16:34:33;3.50;;;1.13;;
17253;SDS011;32542;52.832;13.816;2023-08-21T16:37:37;2.05;;;1.25;;
17253;SDS011;32542;52.832;13.816;2023-08-21T16:40:43;3.10;;;1.10;;
17253;SDS011;32542;52.832;13.816;2023-08-21T16:43:46;4.57;;;0.98;;
17253;SDS011;32542;52.832;13.816;2023-08-21T16:46:49;2.45;;;1.05;;
17253;SDS011;32542;52.832;13.816;2023-08-21T16:49:52;4.25;;;1.05;;
17253;SDS011;32542;52.832;13.816;2023-08-21T16:52:56;6.93;;;1.95;;
17253;SDS011;32542;52.832;13.816;2023-08-21T16:56:14;4.22;;;1.48;;
17253;SDS011;32542;52.832;13.816;2023-08-21T16:59:16;3.60;;;1.40;;
17253;SDS011;32542;52.832;13.816;2023-08-21T17:02:20;2.30;;;1.13;;
17253;SDS011;32542;52.832;13.816;2023-08-21T17:05:23;3.70;;;1.50;;
17253;SDS011;32542;52.832;13.816;2023-08-21T17:08:27;4.13;;;1.30;;
17253;SDS011;32542;52.832;13.816;2023-08-21T17:11:30;2.47;;;1.40;;
17253;SDS011;32542;52.832;13.816;2023-08-21T17:14:33;3.47;;;1.55;;
17253;SDS011;32542;52.832;13.816;2023-08-21T17:17:36;5.05;;;1.17;;
17253;SDS011;32542;52.832;13.816;2023-08-21T17:20:40;3.05;;;1.60;;
17253;SDS011;32542;52.832;13.816;2023-08-21T17:23:44;5.10;;;1.58;;
17253;SDS011;32542;52.832;13.816;2023-08-21T17:26:47;3.58;;;1.20;;
17253;SDS011;32542;52.832;13.816;2023-08-21T17:29:50;5.72;;;1.50;;
17253;SDS011;32542;52.832;13.816;2023-08-21T17:32:53;2.75;;;1.40;;
17253;SDS011;32542;52.832;13.816;2023-08-21T17:35:57;4.70;;;1.30;;
17253;SDS011;32542;52.832;13.816;2023-08-21T17:39:01;4.47;;;1.30;;
17253;SDS011;32542;52.832;13.816;2023-08-21T17:42:04;2.92;;;1.45;;
17253;SDS011;32542;52.832;13.816;2023-08-21T17:45:09;6.70;;;1.45;;
17253;SDS011;32542;52.832;13.816;2023-08-21T17:48:12;3.33;;;1.23;;
17253;SDS011;32542;52.832;13.816;2023-08-21T17:51:15;5.47;;;1.60;;
17253;SDS011;32542;52.832;13.816;2023-08-21T17:54:19;6.25;;;1.50;;
17253;SDS011;32542;52.832;13.816;2023-08-21T17:57:23;6.22;;;1.40;;
17253;SDS011;32542;52.832;13.816;2023-08-21T18:00:26;5.00;;;1.60;;
17253;SDS011;32542;52.832;13.816;2023-08-21T18:03:29;7.25;;;1.60;;
17253;SDS011;32542;52.832;13.816;2023-08-21T18:06:32;5.63;;;1.60;;
17253;SDS011;32542;52.832;13.816;2023-08-21T18:09:36;8.18;;;2.03;;
17253;SDS011;32542;52.832;13.816;2023-08-21T18:12:39;3.63;;;1.65;;
17253;SDS011;32542;52.832;13.816;2023-08-21T18:15:42;5.65;;;1.77;;
17253;SDS011;32542;52.832;13.816;2023-08-21T18:18:45;5.93;;;1.90;;
17253;SDS011;32542;52.832;13.816;2023-08-21T18:21:48;4.32;;;1.65;;
17253;SDS011;32542;52.832;13.816;2023-08-21T18:24:53;5.72;;;1.90;;
17253;SDS011;32542;52.832;13.816;2023-08-21T18:27:55;8.65;;;1.80;;
17253;SDS011;32542;52.832;13.816;2023-08-21T18:30:59;8.45;;;2.65;;
17253;SDS011;32542;52.832;13.816;2023-08-21T18:34:02;5.43;;;1.60;;
17253;SDS011;32542;52.832;13.816;2023-08-21T18:37:06;4.15;;;1.60;;
17253;SDS011;32542;52.832;13.816;2023-08-21T18:40:11;7.25;;;2.20;;